Pays
Station

 

Conditions  météo  pour  Yurimaguas  -  Pérou    Pérou

  
30 °C
    
 
 

METAR pour Yurimaguas :

SPMS 222300Z 05004KT 9999 FEW015 30/24 Q1007 RMK BIRD HAZARD RWY 09/27 PP000

 

Voici le bulletin pour Yurimaguas - Pérou.
 
Le bulletin a été fait il y a 5 heures et 22 minutes, à 23:00 UTC .
Le vent soufflait à la vitesse de 2.1 mètres par seconde de Nord-est (050°).
 
La température était de 30 °C, avec un point de rosée à 24 °C.
La température ressentie était de 35 °C.
 
La pression atmosphérique était de 1007 hPa.
L'humidité relative était de 70.3%.
 
Il y avait 1 à 2/8ème de nébulosité à une hauteur de 457 mètres.
 
La visibilité globale était de supérieure à 10 kilomètres.
 

 
 
 

Pays :   A   B   C   D   E   F   G   H   I   J   K   L   M   N   O   P   Q   R   S   T   U   V   W   Y   Z

 

Partenaires :  Info Météo avec Met'info
Météo Marine avec MeteoMarine.net
Infos Site  |  Infos Légales  |  Crédits  |  Confidentialité
Contactez-nous  |  Ajouter aux favoris
© 2013-2018 METAR - Tous droits réservés